Time;durP1;ratioP1;P1;durP2;ratioP2;P2;SDS_P1;SDS_P2;PMS_P1;PMS_P2;Temp;Humidity;BMP_temperature;BMP_pressure;BME280_temperature;BME280_humidity;BME280_pressure;Samples;Min_cycle;Max_cycle;Signal;HPM_P1;HPM_P2
2022/04/02 00:01:53;;;;;;;6.70;3.03;;;7.00;95.60;;;;;;4896320;29;20453;-73
2022/04/02 00:04:20;;;;;;;3.10;2.50;;;7.00;95.60;;;;;;4904473;29;20427;-73
2022/04/02 00:06:49;;;;;;;3.57;2.90;;;6.90;95.50;;;;;;4928866;29;20969;-73
2022/04/02 00:09:17;;;;;;;4.30;2.70;;;7.00;95.60;;;;;;4914134;29;20524;-73
2022/04/02 00:11:45;;;;;;;4.47;3.13;;;6.90;95.50;;;;;;4914291;29;20412;-73
2022/04/02 00:14:12;;;;;;;3.77;3.07;;;6.90;95.50;;;;;;4913941;29;20452;-72
2022/04/02 00:16:43;;;;;;;3.10;2.80;;;6.90;95.50;;;;;;4914083;29;20849;-73
2022/04/02 00:19:12;;;;;;;3.30;2.80;;;6.90;95.50;;;;;;4915288;29;20445;-73
2022/04/02 00:21:41;;;;;;;5.30;3.00;;;6.90;95.40;;;;;;4914118;29;20448;-72
2022/04/02 00:24:07;;;;;;;5.27;2.73;;;6.90;95.40;;;;;;4899529;29;20492;-73
2022/04/02 00:26:34;;;;;;;3.20;2.70;;;6.90;95.40;;;;;;4917769;29;20535;-73
2022/04/02 00:29:05;;;;;;;2.70;2.20;;;6.90;95.40;;;;;;4917094;29;20463;-73
2022/04/02 00:31:34;;;;;;;3.90;3.10;;;6.90;95.50;;;;;;4902358;29;20528;-73
2022/04/02 00:34:07;;;;;;;3.43;2.67;;;6.90;95.50;;;;;;4902311;29;20448;-73
2022/04/02 00:36:37;;;;;;;3.73;2.40;;;6.90;95.50;;;;;;4917198;29;20556;-73
2022/04/02 00:39:08;;;;;;;4.43;2.83;;;6.90;95.50;;;;;;4917959;29;21017;-73
2022/04/02 00:41:34;;;;;;;3.60;2.73;;;6.90;95.50;;;;;;4901758;29;20437;-73
2022/04/02 00:44:10;;;;;;;4.10;2.67;;;6.90;95.50;;;;;;4917357;29;20551;-73
2022/04/02 00:46:38;;;;;;;5.07;2.97;;;6.90;95.50;;;;;;4917233;29;20455;-73
2022/04/02 00:49:11;;;;;;;3.43;2.53;;;6.90;95.50;;;;;;4901859;29;20417;-73
2022/04/02 00:51:42;;;;;;;2.97;2.27;;;6.90;95.40;;;;;;4918175;29;20470;-72
2022/04/02 00:54:15;;;;;;;4.40;2.80;;;6.90;95.40;;;;;;4918117;29;20427;-73
2022/04/02 00:56:44;;;;;;;3.90;2.90;;;6.90;95.40;;;;;;4901433;29;20982;-73
2022/04/02 00:59:13;;;;;;;3.37;2.50;;;6.90;95.40;;;;;;4918261;29;20453;-73
2022/04/02 01:01:43;;;;;;;3.87;2.67;;;6.90;95.40;;;;;;4917238;29;20389;-73
2022/04/02 01:04:09;;;;;;;3.30;2.93;;;6.90;95.40;;;;;;4899913;29;20527;-73
2022/04/02 01:06:44;;;;;;;3.80;2.50;;;6.90;95.30;;;;;;4901488;29;20535;-72
2022/04/02 01:09:20;;;;;;;3.50;2.67;;;6.90;95.40;;;;;;4915953;29;20504;-73
2022/04/02 01:11:52;;;;;;;3.73;2.87;;;6.90;95.40;;;;;;4916802;29;20432;-72
2022/04/02 01:14:21;;;;;;;4.60;2.47;;;6.90;95.30;;;;;;4916576;29;20514;-73
2022/04/02 01:16:50;;;;;;;3.03;2.73;;;6.80;95.30;;;;;;4901267;29;20516;-73
2022/04/02 01:19:28;;;;;;;4.00;2.37;;;6.90;95.40;;;;;;4917023;29;20494;-73
2022/04/02 01:22:15;;;;;;;3.00;2.43;;;6.80;95.30;;;;;;4901660;29;20437;-73
2022/04/02 01:24:48;;;;;;;3.73;2.43;;;6.80;95.30;;;;;;4915643;29;20880;-73
2022/04/02 01:27:15;;;;;;;2.90;2.60;;;6.90;95.30;;;;;;4916312;29;20444;-73
2022/04/02 01:29:49;;;;;;;4.40;2.57;;;6.80;95.30;;;;;;4916793;29;20783;-73
2022/04/02 01:32:20;;;;;;;2.80;2.27;;;6.80;95.30;;;;;;4886076;29;20429;-73
2022/04/02 01:34:52;;;;;;;3.57;2.10;;;6.90;95.30;;;;;;4917127;29;20456;-72
2022/04/02 01:37:24;;;;;;;4.03;2.53;;;6.80;95.20;;;;;;4915987;29;20488;-72
2022/04/02 01:39:58;;;;;;;1.83;1.73;;;6.90;95.30;;;;;;4900807;29;20499;-72
2022/04/02 01:42:34;;;;;;;3.50;2.43;;;6.90;95.20;;;;;;4916983;29;20436;-72
2022/04/02 01:45:06;;;;;;;3.10;2.40;;;6.80;95.10;;;;;;4916499;29;20445;-72
2022/04/02 01:47:43;;;;;;;2.97;1.80;;;6.90;95.20;;;;;;4897698;29;20943;-71
2022/04/02 01:50:10;;;;;;;3.77;2.50;;;6.80;95.10;;;;;;4889695;29;20500;-72
2022/04/02 01:52:43;;;;;;;3.50;2.10;;;6.80;95.10;;;;;;4901073;29;20939;-72
2022/04/02 01:55:16;;;;;;;4.00;2.53;;;6.80;95.10;;;;;;4915783;29;20455;-72
2022/04/02 01:57:48;;;;;;;3.17;2.20;;;6.80;95.20;;;;;;4900542;29;20472;-72
2022/04/02 02:00:18;;;;;;;6.03;2.23;;;6.80;95.10;;;;;;4916021;29;20408;-72
2022/04/02 02:02:47;;;;;;;3.30;1.77;;;6.80;95.10;;;;;;4915796;29;20448;-72
2022/04/02 02:05:13;;;;;;;2.90;2.00;;;6.80;95.10;;;;;;4900031;29;20429;-72
2022/04/02 02:07:51;;;;;;;2.03;1.83;;;6.80;95.00;;;;;;4900637;29;20485;-72
2022/04/02 02:10:29;;;;;;;3.23;2.20;;;6.80;95.00;;;;;;4898670;29;20966;-72
2022/04/02 02:13:01;;;;;;;3.13;2.23;;;6.80;95.00;;;;;;4899938;29;20437;-72
2022/04/02 02:15:37;;;;;;;2.43;2.03;;;6.80;95.00;;;;;;4915548;29;20468;-72
2022/04/02 02:18:05;;;;;;;3.80;2.00;;;6.80;95.00;;;;;;4931895;29;20822;-72
2022/04/02 02:20:31;;;;;;;3.90;1.80;;;6.80;95.00;;;;;;4902702;29;20440;-71
2022/04/02 02:22:58;;;;;;;2.20;1.90;;;6.80;95.00;;;;;;4881513;29;20938;-72
2022/04/02 02:25:26;;;;;;;3.70;1.77;;;6.80;95.00;;;;;;4898474;29;20420;-72
2022/04/02 02:27:55;;;;;;;2.70;2.07;;;6.80;94.90;;;;;;4900029;29;20460;-72
2022/04/02 02:30:24;;;;;;;3.53;2.20;;;6.80;94.90;;;;;;4915711;29;20514;-72
2022/04/02 02:35:49;;;;;;;2.50;1.77;;;6.80;94.90;;;;;;4900078;29;20537;-72
2022/04/02 02:35:49;;;;;;;3.57;1.83;;;6.80;94.90;;;;;;4899688;29;20833;-72
2022/04/02 02:38:22;;;;;;;4.93;2.00;;;6.80;94.90;;;;;;4898984;29;20589;-72
2022/04/02 02:40:58;;;;;;;2.33;1.93;;;6.80;94.90;;;;;;4914723;29;20557;-72
2022/04/02 02:43:32;;;;;;;4.30;2.53;;;6.80;94.90;;;;;;4915175;29;20423;-72
2022/04/02 02:46:08;;;;;;;1.70;1.60;;;6.80;94.80;;;;;;4915908;29;20454;-72
2022/04/02 02:48:34;;;;;;;3.00;1.83;;;6.80;94.80;;;;;;4899479;29;20455;-72
2022/04/02 02:51:04;;;;;;;3.00;1.77;;;6.80;94.90;;;;;;4916312;29;20432;-72
2022/04/02 02:53:33;;;;;;;4.43;2.30;;;6.80;94.80;;;;;;4915358;29;20405;-72
2022/04/02 02:55:59;;;;;;;2.30;1.77;;;6.80;94.80;;;;;;4914587;29;20512;-72
2022/04/02 02:58:25;;;;;;;3.10;1.70;;;6.80;94.70;;;;;;4915003;29;20926;-72
2022/04/02 03:00:51;;;;;;;2.43;1.67;;;6.80;94.70;;;;;;4899119;29;20428;-71
2022/04/02 03:03:22;;;;;;;3.97;1.93;;;6.80;94.70;;;;;;4915159;29;20432;-72
2022/04/02 03:05:49;;;;;;;3.50;1.77;;;6.80;94.70;;;;;;4899188;29;20452;-72
2022/04/02 03:08:24;;;;;;;2.40;1.73;;;6.80;94.70;;;;;;4898287;29;20440;-72
2022/04/02 03:10:59;;;;;;;3.20;1.93;;;6.70;94.70;;;;;;4914661;29;20556;-72
2022/04/02 03:13:29;;;;;;;3.70;2.63;;;6.70;94.60;;;;;;4898782;29;20425;-72
2022/04/02 03:16:07;;;;;;;3.77;1.90;;;6.80;94.60;;;;;;4899247;29;21201;-72
2022/04/02 03:18:39;;;;;;;2.77;2.10;;;6.80;94.60;;;;;;4899715;29;20432;-71
2022/04/02 03:21:08;;;;;;;3.67;1.80;;;6.70;94.50;;;;;;4899078;29;20421;-72
2022/04/02 03:23:35;;;;;;;3.57;1.87;;;6.70;94.50;;;;;;4898638;29;20985;-72
2022/04/02 03:26:01;;;;;;;2.00;1.80;;;6.70;94.40;;;;;;4915666;29;20447;-72
2022/04/02 03:28:32;;;;;;;5.63;2.20;;;6.70;94.40;;;;;;4883873;29;20535;-72
2022/04/02 03:30:59;;;;;;;2.97;2.20;;;6.70;94.40;;;;;;4914271;29;20452;-72
2022/04/02 03:33:25;;;;;;;2.70;2.03;;;6.70;94.30;;;;;;4930189;29;20538;-72
2022/04/02 03:35:58;;;;;;;1.97;1.70;;;6.70;94.30;;;;;;4899863;29;20471;-72
2022/04/02 03:38:25;;;;;;;3.13;1.97;;;6.70;94.30;;;;;;4898253;29;20486;-72
2022/04/02 03:41:04;;;;;;;2.70;1.97;;;6.70;94.30;;;;;;4914233;29;20494;-72
2022/04/02 03:43:34;;;;;;;2.50;1.80;;;6.70;94.20;;;;;;4897559;29;20483;-72
2022/04/02 03:48:54;;;;;;;1.80;1.60;;;6.70;94.30;;;;;;4928221;29;20465;-72
2022/04/02 03:51:20;;;;;;;3.80;2.03;;;6.70;94.30;;;;;;4910737;29;20511;-72
2022/04/02 03:53:50;;;;;;;1.90;1.70;;;6.70;94.20;;;;;;4930262;29;20909;-72
2022/04/02 03:56:17;;;;;;;3.93;1.80;;;6.70;94.20;;;;;;4954553;23;20853;-87
2022/04/02 03:58:51;;;;;;;3.47;1.77;;;6.70;94.20;;;;;;4935215;29;20458;-90
2022/04/02 04:01:17;;;;;;;2.90;1.90;;;6.70;94.10;;;;;;4905349;29;20810;-91
2022/04/02 04:03:49;;;;;;;8.43;2.00;;;6.70;94.10;;;;;;4953703;29;20494;-90
2022/04/02 04:06:19;;;;;;;3.07;2.13;;;6.70;94.10;;;;;;4937425;29;20444;-91
2022/04/02 04:08:45;;;;;;;3.10;1.93;;;6.70;94.10;;;;;;4953252;29;20453;-90
2022/04/02 04:11:14;;;;;;;1.83;1.40;;;6.70;94.00;;;;;;4930068;29;20459;-90
2022/04/02 04:13:41;;;;;;;2.10;1.90;;;6.70;94.00;;;;;;4934055;29;20427;-90
2022/04/02 04:16:08;;;;;;;2.90;1.97;;;6.70;94.00;;;;;;4915829;29;20470;-91
2022/04/02 04:18:36;;;;;;;2.83;2.00;;;6.70;94.00;;;;;;4938021;29;20440;-90
2022/04/02 04:21:02;;;;;;;3.97;1.87;;;6.70;94.00;;;;;;4924942;29;20750;-91
2022/04/02 04:23:30;;;;;;;2.83;1.57;;;6.70;94.00;;;;;;4920001;29;20481;-89
2022/04/02 04:26:00;;;;;;;3.27;1.70;;;6.70;94.00;;;;;;4937145;29;20455;-91
2022/04/02 04:28:29;;;;;;;2.13;1.87;;;6.70;93.90;;;;;;4937103;29;20466;-90
2022/04/02 04:31:01;;;;;;;2.25;1.80;;;6.60;93.90;;;;;;4944760;29;20420;-89
2022/04/02 04:33:29;;;;;;;3.20;1.70;;;6.60;93.90;;;;;;4939723;29;20193;-90
2022/04/02 04:35:58;;;;;;;4.53;1.67;;;6.60;93.80;;;;;;4937320;29;20544;-92
2022/04/02 04:38:27;;;;;;;3.40;2.20;;;6.60;93.80;;;;;;4937371;29;20439;-92
2022/04/02 04:40:57;;;;;;;2.47;1.80;;;6.60;93.80;;;;;;4937543;29;20486;-90
2022/04/02 04:43:24;;;;;;;2.43;1.97;;;6.60;93.80;;;;;;4933577;29;20439;-91
2022/04/02 04:45:53;;;;;;;1.70;1.30;;;6.60;93.70;;;;;;4943440;29;20434;-90
2022/04/02 04:48:22;;;;;;;4.13;1.80;;;6.60;93.70;;;;;;4933724;29;20411;-92
2022/04/02 04:50:52;;;;;;;1.90;1.33;;;6.60;93.70;;;;;;4940059;29;20434;-90
2022/04/02 04:53:19;;;;;;;3.60;2.50;;;6.70;93.70;;;;;;4921330;29;20454;-91
2022/04/02 04:55:52;;;;;;;3.10;1.60;;;6.60;93.60;;;;;;4937021;29;20455;-91
2022/04/02 04:58:21;;;;;;;3.20;2.00;;;6.60;93.60;;;;;;4952892;29;20530;-89
2022/04/02 05:00:53;;;;;;;3.90;2.00;;;6.60;93.60;;;;;;4937016;29;20835;-90
2022/04/02 05:03:24;;;;;;;2.30;1.60;;;6.60;93.60;;;;;;4952578;29;20418;-93
2022/04/02 05:05:53;;;;;;;2.23;1.70;;;6.60;93.50;;;;;;4936720;29;20444;-89
2022/04/02 05:08:25;;;;;;;2.10;1.90;;;6.60;93.50;;;;;;4936422;29;20450;-90
2022/04/02 05:10:54;;;;;;;2.20;1.65;;;6.60;93.40;;;;;;4937991;29;20586;-93
2022/04/02 05:13:26;;;;;;;5.17;1.73;;;6.60;93.30;;;;;;4940282;29;20219;-89
2022/04/02 05:15:54;;;;;;;2.13;1.70;;;6.60;93.30;;;;;;4939755;29;20463;-90
2022/04/02 05:18:25;;;;;;;2.97;2.30;;;6.60;93.30;;;;;;4955691;29;20978;-91
2022/04/02 05:20:52;;;;;;;2.43;1.60;;;6.60;93.30;;;;;;4933803;29;20452;-91
2022/04/02 05:23:20;;;;;;;5.20;1.73;;;6.50;93.20;;;;;;4921047;29;20768;-91
2022/04/02 05:25:50;;;;;;;3.53;1.77;;;6.60;93.30;;;;;;4927047;29;20466;-92
2022/04/02 05:28:16;;;;;;;2.97;2.17;;;6.50;93.10;;;;;;4940200;29;20513;-89
2022/04/02 05:30:46;;;;;;;6.00;1.73;;;6.50;93.10;;;;;;4931770;29;20458;-90
2022/04/02 05:33:12;;;;;;;1.93;1.70;;;6.50;93.10;;;;;;4921050;29;20446;-90
2022/04/02 05:35:40;;;;;;;2.87;1.57;;;6.50;93.00;;;;;;4944917;29;20562;-91
2022/04/02 05:38:09;;;;;;;3.00;2.00;;;6.60;93.00;;;;;;4939456;29;20537;-90
2022/04/02 05:40:39;;;;;;;2.03;1.83;;;6.50;92.90;;;;;;4936368;29;20429;-90
2022/04/02 05:43:06;;;;;;;4.60;1.80;;;6.60;92.80;;;;;;4905461;29;20429;-92
2022/04/02 05:45:37;;;;;;;2.60;1.70;;;6.50;92.70;;;;;;4936950;29;20417;-90
2022/04/02 05:48:05;;;;;;;4.30;2.20;;;6.50;92.70;;;;;;4936486;29;20491;-89
2022/04/02 05:50:31;;;;;;;2.40;1.87;;;6.50;92.70;;;;;;4939843;29;20590;-92
2022/04/02 05:53:00;;;;;;;3.67;2.10;;;6.50;92.80;;;;;;4923549;29;20443;-93
2022/04/02 05:55:26;;;;;;;2.43;1.90;;;6.50;92.80;;;;;;4935357;29;20464;-90
2022/04/02 05:57:54;;;;;;;2.10;1.60;;;6.50;92.80;;;;;;4920757;29;20525;-90
2022/04/02 06:00:23;;;;;;;2.70;2.13;;;6.50;92.80;;;;;;4921141;29;20918;-89
2022/04/02 06:02:49;;;;;;;3.07;2.30;;;6.50;92.80;;;;;;4936119;29;20845;-91
2022/04/02 06:05:15;;;;;;;2.37;1.80;;;6.50;92.80;;;;;;4936407;29;20405;-92
2022/04/02 06:07:42;;;;;;;2.73;2.00;;;6.50;92.70;;;;;;4936444;29;20451;-90
2022/04/02 06:10:09;;;;;;;3.30;1.80;;;6.50;92.60;;;;;;4920397;29;20483;-92
2022/04/02 06:12:39;;;;;;;3.00;1.87;;;6.50;92.50;;;;;;4920535;29;20446;-90
2022/04/02 06:15:09;;;;;;;3.43;2.00;;;6.50;92.60;;;;;;4904771;29;20517;-93
2022/04/02 06:17:35;;;;;;;4.03;2.53;;;6.50;92.50;;;;;;4920382;29;20542;-91
2022/04/02 06:20:01;;;;;;;2.40;1.90;;;6.50;92.50;;;;;;4951041;29;20495;-89
2022/04/02 06:22:32;;;;;;;2.77;1.80;;;6.50;92.50;;;;;;4938789;29;20812;-91
2022/04/02 06:25:00;;;;;;;2.90;1.90;;;6.50;92.50;;;;;;4920915;29;20483;-91
2022/04/02 06:27:26;;;;;;;2.43;1.83;;;6.50;92.50;;;;;;4925731;29;20462;-92
2022/04/02 06:29:52;;;;;;;3.00;1.93;;;6.50;92.60;;;;;;4936461;29;20443;-90
2022/04/02 06:32:21;;;;;;;3.03;2.20;;;6.50;92.50;;;;;;4920551;29;20519;-91
2022/04/02 06:34:47;;;;;;;2.70;2.50;;;6.50;92.40;;;;;;4935635;29;20268;-91
2022/04/02 06:37:13;;;;;;;2.60;1.60;;;6.50;92.40;;;;;;4935664;29;20571;-89
2022/04/02 06:39:41;;;;;;;3.80;2.10;;;6.50;92.20;;;;;;4935674;29;20421;-89
2022/04/02 06:42:10;;;;;;;2.20;1.77;;;6.40;92.30;;;;;;4939159;29;20431;-92
2022/04/02 06:44:44;;;;;;;5.47;2.10;;;6.40;92.30;;;;;;4922995;29;20452;-90
2022/04/02 06:47:15;;;;;;;3.50;1.80;;;6.50;92.40;;;;;;4941690;29;20446;-92
2022/04/02 06:50:09;;;;;;;3.43;2.50;;;6.50;92.20;;;;;;4945779;29;20498;-91
2022/04/02 06:52:40;;;;;;;2.20;2.00;;;6.50;92.20;;;;;;4938916;29;20463;-93
2022/04/02 06:55:35;;;;;;;4.57;2.60;;;6.40;92.30;;;;;;4924473;29;20468;-93
2022/04/02 06:58:02;;;;;;;3.60;2.53;;;6.40;92.30;;;;;;4920476;29;20508;-91
2022/04/02 07:00:28;;;;;;;3.50;2.03;;;6.40;92.20;;;;;;4928088;29;20432;-92
2022/04/02 07:02:54;;;;;;;3.10;2.40;;;6.40;92.30;;;;;;4939317;29;20455;-91
2022/04/02 07:05:22;;;;;;;2.93;2.30;;;6.40;92.20;;;;;;4938626;29;20462;-90
2022/04/02 07:07:51;;;;;;;3.63;2.27;;;6.40;92.20;;;;;;4944946;29;20802;-92
2022/04/02 07:10:17;;;;;;;3.50;2.30;;;6.40;92.20;;;;;;4935314;29;20452;-89
2022/04/02 07:12:43;;;;;;;5.20;2.30;;;6.40;92.10;;;;;;4910175;29;20189;-91
2022/04/02 07:15:10;;;;;;;2.90;2.07;;;6.40;92.20;;;;;;4945332;29;20471;-91
2022/04/02 07:17:36;;;;;;;3.77;2.20;;;6.40;92.00;;;;;;4922376;29;20480;-93
2022/04/02 07:20:18;;;;;;;3.43;2.30;;;6.40;92.00;;;;;;4938341;29;20428;-92
2022/04/02 07:22:44;;;;;;;3.30;2.00;;;6.40;92.00;;;;;;4934758;29;20432;-93
2022/04/02 07:25:12;;;;;;;4.20;2.50;;;6.40;92.00;;;;;;4935210;29;20431;-91
2022/04/02 07:27:41;;;;;;;3.60;2.60;;;6.40;92.00;;;;;;4934479;29;20927;-92
2022/04/02 07:30:08;;;;;;;4.10;2.30;;;6.40;92.00;;;;;;4929360;29;20471;-89
2022/04/02 07:32:34;;;;;;;5.10;2.70;;;6.40;92.00;;;;;;4938573;29;20435;-92
2022/04/02 07:35:02;;;;;;;2.70;2.40;;;6.40;91.80;;;;;;4936399;29;21224;-90
2022/04/02 07:38:03;;;;;;;3.23;2.30;;;6.50;91.80;;;;;;4903686;29;20426;-91
2022/04/02 07:40:51;;;;;;;4.10;2.63;;;6.40;91.70;;;;;;4926242;29;20497;-92
2022/04/02 07:43:41;;;;;;;3.40;2.20;;;6.40;91.80;;;;;;4922312;29;20594;-93
2022/04/02 07:46:14;;;;;;;3.97;1.97;;;6.40;91.80;;;;;;4922406;29;20431;-92
2022/04/02 07:48:43;;;;;;;2.33;1.90;;;6.40;91.80;;;;;;4906125;29;20778;-92
2022/04/02 07:51:12;;;;;;;3.43;2.60;;;6.40;91.80;;;;;;4953989;29;20439;-93
2022/04/02 07:53:51;;;;;;;2.43;1.90;;;6.40;91.80;;;;;;4938486;29;20444;-93
2022/04/02 07:56:21;;;;;;;2.50;2.03;;;6.40;91.80;;;;;;4937655;29;20505;-91
2022/04/02 07:58:52;;;;;;;3.43;2.37;;;6.40;91.80;;;;;;4947370;29;20444;-93
2022/04/02 08:01:21;;;;;;;3.33;2.20;;;6.50;91.80;;;;;;4923725;29;20490;-93
2022/04/02 08:03:48;;;;;;;2.93;2.60;;;6.50;91.70;;;;;;4926095;29;20424;-93
2022/04/02 08:06:20;;;;;;;4.27;2.50;;;6.40;91.70;;;;;;4942242;29;20438;-92
2022/04/02 08:08:51;;;;;;;3.50;2.20;;;6.50;91.70;;;;;;4933052;29;20462;-93
2022/04/02 08:11:21;;;;;;;2.90;2.07;;;6.50;91.70;;;;;;4939508;29;20435;-93
2022/04/02 08:13:54;;;;;;;4.70;2.50;;;6.50;91.60;;;;;;4945547;29;20529;-91
2022/04/02 08:16:20;;;;;;;4.60;2.40;;;6.50;91.50;;;;;;4944805;29;20463;-92
2022/04/02 08:18:47;;;;;;;3.90;2.50;;;6.50;91.40;;;;;;4972888;28;20429;-91
2022/04/02 08:21:18;;;;;;;3.90;2.53;;;6.50;91.40;;;;;;4947679;29;20567;-94
2022/04/02 08:28:39;;;;;;;3.57;2.17;;;6.60;91.10;;;;;;4937983;29;20434;-93
2022/04/02 08:35:20;;;;;;;3.10;2.33;;;6.50;91.30;;;;;;4940945;29;20457;-91
2022/04/02 08:38:23;;;;;;;2.83;2.40;;;6.50;91.50;;;;;;4953926;29;20415;-93
2022/04/02 08:41:08;;;;;;;3.73;2.30;;;6.50;91.60;;;;;;4929941;29;20444;-93
2022/04/02 08:43:59;;;;;;;3.40;2.20;;;6.50;91.60;;;;;;4925002;29;20490;-92
2022/04/02 08:46:44;;;;;;;4.20;2.27;;;6.50;91.40;;;;;;4951817;29;20480;-88
2022/04/02 08:49:30;;;;;;;3.50;2.00;;;6.60;91.30;;;;;;4945523;29;20438;-94
2022/04/02 08:52:28;;;;;;;3.80;2.30;;;6.60;91.10;;;;;;4917921;29;20436;-90
2022/04/02 08:55:03;;;;;;;2.30;2.10;;;6.60;91.10;;;;;;4922866;29;20489;-91
2022/04/02 08:57:32;;;;;;;2.80;2.10;;;6.70;91.00;;;;;;4928364;29;20441;-92
2022/04/02 09:00:06;;;;;;;2.50;2.10;;;6.60;91.00;;;;;;4956681;28;20453;-91
2022/04/02 09:03:05;;;;;;;4.20;2.67;;;6.60;91.20;;;;;;4935175;29;20417;-93
2022/04/02 09:06:12;;;;;;;3.70;2.83;;;6.70;91.20;;;;;;4935736;29;20853;-91
2022/04/02 09:09:06;;;;;;;3.63;2.07;;;6.70;91.10;;;;;;4956875;29;20490;-91
2022/04/02 09:12:10;;;;;;;3.90;3.20;;;6.70;91.10;;;;;;4951843;29;20860;-92
2022/04/02 09:15:15;;;;;;;3.90;2.50;;;6.70;91.10;;;;;;4886528;29;20447;-93
2022/04/02 09:18:19;;;;;;;5.13;2.57;;;6.70;91.00;;;;;;4952008;29;20458;-90
2022/04/02 09:20:51;;;;;;;3.10;2.67;;;6.70;91.10;;;;;;4944140;29;20442;-94
2022/04/02 09:23:29;;;;;;;4.30;3.23;;;6.70;91.20;;;;;;4919582;29;20437;-93
2022/04/02 09:26:13;;;;;;;3.00;2.50;;;6.70;91.20;;;;;;4950612;29;20437;-93
2022/04/02 09:28:42;;;;;;;7.20;2.93;;;6.80;91.00;;;;;;4927045;29;20506;-92
2022/04/02 09:35:02;;;;;;;4.50;2.67;;;6.80;90.70;;;;;;4939747;29;20753;-93
2022/04/02 09:37:46;;;;;;;5.77;3.03;;;6.80;90.70;;;;;;4939444;29;20603;-94
2022/04/02 09:40:12;;;;;;;3.77;2.47;;;6.80;90.80;;;;;;4940649;29;20436;-93
2022/04/02 09:42:43;;;;;;;4.33;2.90;;;6.80;90.90;;;;;;4925072;29;20431;-94
2022/04/02 09:45:09;;;;;;;3.60;2.97;;;6.80;90.90;;;;;;4956360;29;20422;-92
2022/04/02 09:47:48;;;;;;;4.20;2.77;;;6.80;91.00;;;;;;4952853;29;20513;-94
2022/04/02 09:50:17;;;;;;;3.67;2.33;;;6.80;91.10;;;;;;4955910;29;20446;-92
2022/04/02 09:52:56;;;;;;;4.27;3.20;;;6.80;91.00;;;;;;4940123;29;20898;-93
2022/04/02 09:55:35;;;;;;;4.97;2.60;;;6.90;90.80;;;;;;4935475;29;20468;-90
2022/04/02 09:58:22;;;;;;;3.60;2.70;;;7.00;90.70;;;;;;4920434;29;20463;-91
2022/04/02 10:01:02;;;;;;;3.80;2.63;;;7.00;90.60;;;;;;4936776;29;20460;-89
2022/04/02 10:03:51;;;;;;;5.10;2.50;;;7.00;90.50;;;;;;4920445;29;20500;-93
2022/04/02 10:06:20;;;;;;;4.53;3.27;;;7.00;90.40;;;;;;4941557;29;20743;-92
2022/04/02 10:09:42;;;;;;;3.50;2.90;;;7.00;90.50;;;;;;4942594;29;20451;-93
2022/04/02 10:12:10;;;;;;;7.10;3.27;;;7.00;90.60;;;;;;4927103;29;20450;-92
2022/04/02 10:14:41;;;;;;;7.23;3.27;;;7.00;90.50;;;;;;4957244;29;20663;-93
2022/04/02 10:17:08;;;;;;;4.70;3.63;;;7.00;90.60;;;;;;4955880;29;20430;-93
2022/04/02 10:19:36;;;;;;;5.17;3.17;;;7.00;90.40;;;;;;4939684;29;20428;-92
2022/04/02 10:22:07;;;;;;;6.63;3.23;;;7.10;90.40;;;;;;4955220;29;20538;-92
2022/04/02 10:24:50;;;;;;;5.87;3.60;;;7.10;90.40;;;;;;4938841;29;20459;-93
2022/04/02 10:27:36;;;;;;;4.37;3.53;;;7.00;90.50;;;;;;4940425;29;20429;-92
2022/04/02 10:30:40;;;;;;;4.50;3.23;;;7.10;90.50;;;;;;4937189;29;20411;-91
2022/04/02 10:33:29;;;;;;;5.23;3.87;;;7.10;90.40;;;;;;4917247;29;20457;-93
2022/04/02 10:35:56;;;;;;;10.17;5.70;;;7.10;90.40;;;;;;4939047;29;20487;-91
2022/04/02 10:38:22;;;;;;;6.50;4.73;;;7.10;90.40;;;;;;4923633;29;20431;-91
2022/04/02 10:40:56;;;;;;;5.17;3.97;;;7.10;90.30;;;;;;4958451;29;20443;-90
2022/04/02 10:43:26;;;;;;;5.47;4.03;;;7.10;90.40;;;;;;4941538;29;20188;-87
2022/04/02 10:46:20;;;;;;;4.80;4.07;;;7.10;90.50;;;;;;4919674;29;20432;-93
2022/04/02 10:49:00;;;;;;;7.97;4.50;;;7.10;90.50;;;;;;4954106;28;20490;-92
2022/04/02 10:51:29;;;;;;;4.57;3.87;;;7.10;90.60;;;;;;4925336;29;20530;-91
2022/04/02 10:54:01;;;;;;;8.23;3.77;;;7.00;90.70;;;;;;4940043;29;20431;-92
2022/04/02 10:56:49;;;;;;;5.47;4.07;;;7.00;90.80;;;;;;4926290;29;20972;-90
2022/04/02 10:59:16;;;;;;;5.53;4.20;;;7.10;90.70;;;;;;4919623;29;20436;-91
2022/04/02 11:01:57;;;;;;;4.53;3.73;;;7.00;90.80;;;;;;4945041;29;20451;-92
2022/04/02 11:04:57;;;;;;;6.50;4.07;;;7.00;91.00;;;;;;4938340;29;20528;-91
2022/04/02 11:07:30;;;;;;;5.60;4.00;;;7.00;91.40;;;;;;4953152;29;20459;-92
2022/04/02 11:09:59;;;;;;;5.90;4.20;;;7.10;91.50;;;;;;4931681;29;20474;-91
2022/04/02 11:12:33;;;;;;;7.00;4.53;;;7.10;91.40;;;;;;4954256;29;20416;-90
2022/04/02 11:15:08;;;;;;;3.90;3.53;;;7.10;91.40;;;;;;4938183;29;20481;-91
2022/04/02 11:17:37;;;;;;;7.50;4.63;;;7.20;91.20;;;;;;4938498;29;20489;-92
2022/04/02 11:20:09;;;;;;;4.17;3.70;;;7.20;91.20;;;;;;4935266;29;20428;-91
2022/04/02 11:22:54;;;;;;;5.87;4.20;;;7.20;91.20;;;;;;4956573;28;20818;-93
2022/04/02 11:25:50;;;;;;;4.53;3.50;;;7.10;91.10;;;;;;4922665;29;20924;-92
2022/04/02 11:28:20;;;;;;;4.97;3.43;;;7.10;91.30;;;;;;4944886;29;20470;-90
2022/04/02 11:31:05;;;;;;;6.27;3.33;;;7.10;91.20;;;;;;4949065;29;20491;-92
2022/04/02 11:33:50;;;;;;;4.73;3.63;;;7.10;91.20;;;;;;4973176;28;20411;-90
2022/04/02 11:36:16;;;;;;;5.03;3.50;;;7.20;91.00;;;;;;4930569;29;20562;-90
2022/04/02 11:39:02;;;;;;;5.07;3.60;;;7.20;91.10;;;;;;4949092;29;20447;-93
2022/04/02 11:41:40;;;;;;;4.10;3.70;;;7.20;91.20;;;;;;4922632;29;20448;-87
2022/04/02 11:44:11;;;;;;;5.63;4.20;;;7.20;91.30;;;;;;4928266;29;20520;-89
2022/04/02 11:47:00;;;;;;;7.03;4.20;;;7.20;91.10;;;;;;4957097;28;20443;-91
2022/04/02 11:49:37;;;;;;;12.10;6.90;;;7.20;91.20;;;;;;4959172;28;20828;-89
2022/04/02 11:52:14;;;;;;;5.20;4.30;;;7.20;91.30;;;;;;4918698;29;20467;-90
2022/04/02 11:54:56;;;;;;;7.00;4.50;;;7.20;91.40;;;;;;4937431;29;21664;-89
2022/04/02 11:57:24;;;;;;;5.17;4.00;;;7.30;91.40;;;;;;4941325;29;20458;-89
2022/04/02 11:59:51;;;;;;;5.60;4.40;;;7.20;91.30;;;;;;4937881;29;20434;-90
2022/04/02 12:02:33;;;;;;;4.27;3.60;;;7.30;91.20;;;;;;4939292;29;20453;-89
2022/04/02 12:05:13;;;;;;;4.47;3.90;;;7.30;91.20;;;;;;4926883;29;20545;-90
2022/04/02 12:12:28;;;;;;;5.77;3.90;;;7.30;91.30;;;;;;4937537;29;20453;-89
2022/04/02 12:14:58;;;;;;;5.27;4.10;;;7.30;91.10;;;;;;4953466;29;20475;-86
2022/04/02 12:17:31;;;;;;;4.03;3.63;;;7.40;91.10;;;;;;4925276;29;20423;-92
2022/04/02 12:19:58;;;;;;;3.63;3.27;;;7.40;91.20;;;;;;4951639;28;20434;-88
2022/04/02 12:22:38;;;;;;;4.57;3.90;;;7.30;91.30;;;;;;4935138;29;20494;-89
2022/04/02 12:25:07;;;;;;;4.17;3.80;;;7.30;91.50;;;;;;4946672;29;20427;-91
2022/04/02 12:27:37;;;;;;;6.20;4.57;;;7.30;91.50;;;;;;4936311;29;20428;-90
2022/04/02 12:30:07;;;;;;;6.70;3.63;;;7.30;91.80;;;;;;4922437;29;20495;-90
2022/04/02 12:32:37;;;;;;;5.17;3.87;;;7.40;91.60;;;;;;4923481;29;20433;-90
2022/04/02 12:35:09;;;;;;;4.60;3.73;;;7.40;91.50;;;;;;4968361;28;20912;-90
2022/04/02 12:37:44;;;;;;;4.13;3.47;;;7.40;91.60;;;;;;4941185;29;20486;-90
2022/04/02 12:40:25;;;;;;;5.13;3.80;;;7.30;91.70;;;;;;4943972;29;20530;-89
2022/04/02 12:42:56;;;;;;;3.80;3.40;;;7.30;91.80;;;;;;4956934;29;20463;-90
2022/04/02 12:45:24;;;;;;;6.00;3.40;;;7.30;91.90;;;;;;4929564;29;20529;-90
2022/04/02 12:48:20;;;;;;;4.30;3.23;;;7.40;92.20;;;;;;4932443;29;20535;-90
2022/04/02 12:50:52;;;;;;;4.10;3.50;;;7.40;92.30;;;;;;4941710;29;20432;-91
2022/04/02 12:53:30;;;;;;;6.37;3.73;;;7.40;92.40;;;;;;4925418;29;20469;-91
2022/04/02 12:56:16;;;;;;;3.80;3.33;;;7.40;92.40;;;;;;4940889;29;20839;-92
2022/04/02 12:58:47;;;;;;;3.63;3.33;;;7.40;92.30;;;;;;4937446;29;20564;-94
2022/04/02 13:01:25;;;;;;;4.53;3.80;;;7.40;92.30;;;;;;4940292;29;20467;-92
2022/04/02 13:04:13;;;;;;;6.43;3.83;;;7.40;92.30;;;;;;4940739;29;20444;-94
2022/04/02 13:06:39;;;;;;;5.67;3.40;;;7.40;92.20;;;;;;4940904;29;20435;-94
2022/04/02 13:09:05;;;;;;;4.67;3.30;;;7.40;92.10;;;;;;4940749;29;20582;-96
2022/04/02 13:11:44;;;;;;;5.33;3.80;;;7.40;92.20;;;;;;4928875;29;20199;-95
2022/04/02 13:14:17;;;;;;;5.43;2.97;;;7.40;92.20;;;;;;4938389;29;20488;-95
2022/04/02 13:16:45;;;;;;;5.00;3.73;;;7.50;92.10;;;;;;4940460;29;20478;-93
2022/04/02 13:22:08;;;;;;;5.10;3.50;;;7.50;91.90;;;;;;4956398;29;20404;-93
2022/04/02 13:24:57;;;;;;;3.60;3.27;;;7.50;91.80;;;;;;4940650;29;20428;-92
2022/04/02 13:27:32;;;;;;;4.30;3.23;;;7.50;91.80;;;;;;4932226;29;20500;-92
2022/04/02 13:30:11;;;;;;;4.33;3.40;;;7.50;91.80;;;;;;4931618;29;20512;-92
2022/04/02 13:33:07;;;;;;;7.00;3.87;;;7.50;91.40;;;;;;4924053;29;20464;-91
2022/04/02 13:35:47;;;;;;;3.77;3.07;;;7.50;91.50;;;;;;4937328;29;20770;-93
2022/04/02 13:38:28;;;;;;;5.23;3.30;;;7.50;91.40;;;;;;4924638;29;20519;-91
2022/04/02 13:41:02;;;;;;;5.20;3.57;;;7.50;91.40;;;;;;4913532;29;20439;-93
2022/04/02 13:43:36;;;;;;;5.37;3.33;;;7.60;91.50;;;;;;4939915;29;20436;-91
2022/04/02 13:46:11;;;;;;;3.93;2.77;;;7.60;91.40;;;;;;4956022;29;20458;-93
2022/04/02 13:48:55;;;;;;;5.00;3.83;;;7.60;91.50;;;;;;4942408;29;20424;-92
2022/04/02 13:51:57;;;;;;;4.43;3.40;;;7.60;91.40;;;;;;4921494;29;20464;-90
2022/04/02 13:54:27;;;;;;;4.97;4.00;;;7.60;91.30;;;;;;4953397;29;20447;-91